Aviation Digital Data Service (ADDS)

Output produced by TAFs form (1026 UTC 27 November 2014)
found at http://aviationweather.gov/adds/tafs/
 
KGUP 270531Z 2706/2806 VRB03KT P6SM SKC 
     FM272100 24006KT P6SM SCT250 
     FM280100 VRB03KT P6SM BKN250